Time;durP1;ratioP1;P1;durP2;ratioP2;P2;SDS_P1;SDS_P2;PMS_P1;PMS_P2;Temp;Humidity;BMP_temperature;BMP_pressure;BME280_temperature;BME280_humidity;BME280_pressure;Samples;Min_cycle;Max_cycle;Signal;HPM_P1;HPM_P2
2022/03/05 00:00:31;;;;;;;20.37;10.20;;;;;;;-2.33;100.00;95461.28;5015449;28;20241;-54
2022/03/05 00:02:58;;;;;;;21.27;10.77;;;;;;;-2.35;100.00;95460.81;5015292;28;20215;-50
2022/03/05 00:05:23;;;;;;;19.00;10.73;;;;;;;-2.37;100.00;95462.25;5014643;28;20211;-68
2022/03/05 00:07:48;;;;;;;19.83;10.60;;;;;;;-2.39;100.00;95461.78;5015195;28;20230;-52
2022/03/05 00:10:14;;;;;;;23.13;11.00;;;;;;;-2.39;100.00;95461.78;5014960;28;20199;-52
2022/03/05 00:12:40;;;;;;;18.20;9.80;;;;;;;-2.42;100.00;95455.19;5014991;28;20223;-53
2022/03/05 00:15:06;;;;;;;23.47;11.03;;;;;;;-2.43;100.00;95458.19;5015425;28;20191;-51
2022/03/05 00:17:31;;;;;;;21.67;11.07;;;;;;;-2.45;100.00;95460.41;5014723;28;20270;-52
2022/03/05 00:19:57;;;;;;;21.87;11.17;;;;;;;-2.47;100.00;95467.94;5015265;28;20218;-53
2022/03/05 00:22:23;;;;;;;24.80;11.90;;;;;;;-2.48;100.00;95455.69;5015252;28;20191;-54
2022/03/05 00:24:48;;;;;;;20.00;10.90;;;;;;;-2.48;100.00;95455.69;5014822;28;20187;-47
2022/03/05 00:27:14;;;;;;;21.90;10.87;;;;;;;-2.47;100.00;95458.03;5015195;28;20179;-49
2022/03/05 00:29:40;;;;;;;24.67;11.80;;;;;;;-2.47;100.00;95462.59;5014758;28;20249;-47
2022/03/05 00:32:05;;;;;;;21.33;10.63;;;;;;;-2.46;100.00;95466.81;5014643;28;20226;-48
2022/03/05 00:34:31;;;;;;;21.83;11.07;;;;;;;-2.49;100.00;95462.09;5014377;28;20171;-50
2022/03/05 00:36:56;;;;;;;21.50;11.20;;;;;;;-2.50;100.00;95453.31;5014635;28;20608;-48
2022/03/05 00:39:21;;;;;;;20.80;10.60;;;;;;;-2.52;100.00;95452.84;5014589;28;20189;-52
2022/03/05 00:41:47;;;;;;;24.77;10.67;;;;;;;-2.54;100.00;95459.63;5015057;28;20282;-58
2022/03/05 00:44:13;;;;;;;23.23;10.80;;;;;;;-2.53;100.00;95458.50;5014706;28;20286;-53
2022/03/05 00:46:40;;;;;;;23.57;10.97;;;;;;;-2.52;100.00;95450.19;5014498;28;20219;-57
2022/03/05 00:49:06;;;;;;;20.33;11.57;;;;;;;-2.56;100.00;95453.81;5014509;28;20195;-57
2022/03/05 00:51:31;;;;;;;23.97;11.63;;;;;;;-2.59;100.00;95449.13;5015226;28;20325;-57
2022/03/05 00:53:57;;;;;;;21.63;10.70;;;;;;;-2.59;100.00;95449.13;5014532;28;20187;-57
2022/03/05 00:56:22;;;;;;;22.80;11.53;;;;;;;-2.58;100.00;95445.34;5014644;28;20269;-58
2022/03/05 00:58:47;;;;;;;21.87;11.83;;;;;;;-2.59;100.00;95446.44;5014223;28;20191;-57
2022/03/05 01:01:13;;;;;;;21.17;11.67;;;;;;;-2.60;100.00;95447.53;5014527;28;20195;-61
2022/03/05 01:03:38;;;;;;;21.70;11.63;;;;;;;-2.62;100.00;95444.41;5013928;28;20211;-61
2022/03/05 01:06:03;;;;;;;25.90;12.57;;;;;;;-2.61;100.00;95440.63;5014287;28;20242;-62
2022/03/05 01:08:29;;;;;;;23.77;12.23;;;;;;;-2.63;100.00;95453.53;5014281;28;20349;-61
2022/03/05 01:10:54;;;;;;;24.70;11.63;;;;;;;-2.65;100.00;95448.50;5014125;28;20198;-61
2022/03/05 01:13:19;;;;;;;23.43;12.37;;;;;;;-2.67;100.00;95448.03;5014178;28;20237;-61
2022/03/05 01:15:45;;;;;;;20.63;11.37;;;;;;;-2.68;100.00;95446.47;5013874;28;20198;-61
2022/03/05 01:18:10;;;;;;;24.17;12.20;;;;;;;-2.70;100.00;95443.31;5014496;28;20191;-58
2022/03/05 01:20:35;;;;;;;24.63;12.67;;;;;;;-2.71;100.00;95452.44;5014040;28;20183;-51
2022/03/05 01:23:01;;;;;;;25.00;13.30;;;;;;;-2.72;100.00;95450.88;5013908;28;20190;-46
2022/03/05 01:25:27;;;;;;;23.80;11.40;;;;;;;-2.74;100.00;95450.38;5014210;28;20210;-49
2022/03/05 01:27:52;;;;;;;24.27;12.47;;;;;;;-2.74;100.00;95441.63;5013920;28;20594;-47
2022/03/05 01:30:17;;;;;;;25.67;12.50;;;;;;;-2.77;100.00;95452.94;5014031;28;20210;-47
2022/03/05 01:32:43;;;;;;;26.27;12.97;;;;;;;-2.82;100.00;95447.72;5013777;28;20535;-48
2022/03/05 01:35:09;;;;;;;24.80;11.93;;;;;;;-2.81;100.00;95446.66;5014107;28;20187;-46
2022/03/05 01:37:34;;;;;;;21.97;11.77;;;;;;;-2.81;100.00;95443.97;5014212;28;20179;-61
2022/03/05 01:39:59;;;;;;;24.50;12.57;;;;;;;-2.77;100.00;95442.25;5013656;28;20187;-51
2022/03/05 01:42:25;;;;;;;25.37;12.13;;;;;;;-2.79;100.00;95441.75;5014046;28;20202;-53
2022/03/05 01:44:51;;;;;;;22.87;11.47;;;;;;;-2.78;100.00;95446.00;5013633;28;20183;-53
2022/03/05 01:47:16;;;;;;;23.30;11.67;;;;;;;-2.83;100.00;95448.84;5013488;28;20238;-48
2022/03/05 01:49:42;;;;;;;26.57;13.00;;;;;;;-2.82;100.00;95445.06;5013722;28;20191;-53
2022/03/05 01:52:07;;;;;;;25.00;12.67;;;;;;;-2.89;100.00;95444.75;5013510;28;20202;-51
2022/03/05 01:54:33;;;;;;;22.73;11.97;;;;;;;-2.88;100.00;95441.00;5013428;28;20273;-61
2022/03/05 01:57:00;;;;;;;26.30;13.27;;;;;;;-2.91;100.00;95446.97;5013521;28;20558;-51
2022/03/05 01:59:25;;;;;;;25.90;12.47;;;;;;;-2.97;100.00;95448.22;5013700;28;20180;-46
2022/03/05 02:01:51;;;;;;;25.00;12.10;;;;;;;-3.01;100.00;95441.97;5013435;28;20217;-46
2022/03/05 02:04:17;;;;;;;23.40;12.57;;;;;;;-3.03;100.00;95444.16;5013339;28;20183;-47
2022/03/05 02:06:42;;;;;;;24.17;12.47;;;;;;;-3.05;100.00;95446.34;5012920;28;20215;-48
2022/03/05 02:09:07;;;;;;;22.87;11.83;;;;;;;-3.08;100.00;95444.31;5013383;28;20184;-49
2022/03/05 02:11:33;;;;;;;23.80;12.23;;;;;;;-3.12;100.00;95438.84;5013270;28;20219;-47
2022/03/05 02:13:58;;;;;;;21.47;11.27;;;;;;;-3.17;100.00;95443.56;5013526;28;20218;-55
2022/03/05 02:16:24;;;;;;;25.70;12.30;;;;;;;-3.22;100.00;95425.81;5013516;28;20194;-61
2022/03/05 02:18:51;;;;;;;24.77;12.17;;;;;;;-3.27;100.00;95433.19;5014452;28;20211;-61
2022/03/05 02:21:17;;;;;;;25.47;12.50;;;;;;;-3.32;100.00;95433.34;5013002;28;20270;-61
2022/03/05 02:23:43;;;;;;;24.30;13.20;;;;;;;-3.33;100.00;95434.44;5012974;28;20254;-62
2022/03/05 02:26:08;;;;;;;20.50;11.93;;;;;;;-3.38;100.00;95434.59;5012859;28;20199;-61
2022/03/05 02:28:35;;;;;;;23.97;12.50;;;;;;;-3.42;100.00;95434.47;5012425;28;20189;-61
2022/03/05 02:31:01;;;;;;;25.33;12.53;;;;;;;-3.45;100.00;95441.19;5012910;28;20187;-62
2022/03/05 02:33:26;;;;;;;23.17;12.33;;;;;;;-3.43;100.00;95440.09;5013029;28;20675;-68
2022/03/05 02:35:52;;;;;;;26.67;13.10;;;;;;;-3.47;100.00;95435.41;5012838;28;20209;-67
2022/03/05 02:38:20;;;;;;;23.47;12.57;;;;;;;-3.47;100.00;95428.50;5012816;28;20210;-67
2022/03/05 02:40:47;;;;;;;24.20;12.37;;;;;;;-3.51;100.00;95421.13;5012864;28;20187;-67
2022/03/05 02:43:13;;;;;;;22.10;12.03;;;;;;;-3.53;100.00;95420.63;5013255;28;20241;-68
2022/03/05 02:45:40;;;;;;;23.87;12.10;;;;;;;-3.58;100.00;95422.66;5012608;28;20207;-67
2022/03/05 02:48:09;;;;;;;25.17;12.70;;;;;;;-3.60;100.00;95414.22;5012651;28;20199;-67
2022/03/05 02:50:34;;;;;;;24.97;12.93;;;;;;;-3.61;100.00;95412.63;5012751;28;20237;-57
2022/03/05 02:53:00;;;;;;;24.73;12.40;;;;;;;-3.66;100.00;95408.25;5012718;28;20191;-50
2022/03/05 02:55:25;;;;;;;23.77;12.37;;;;;;;-3.69;100.00;95408.88;5012965;28;20195;-51
2022/03/05 02:57:51;;;;;;;24.33;13.00;;;;;;;-3.71;100.00;95408.38;5013177;28;20205;-47
2022/03/05 03:00:17;;;;;;;22.33;12.07;;;;;;;-3.73;100.00;95405.25;5012713;28;20191;-49
2022/03/05 03:02:45;;;;;;;26.70;13.03;;;;;;;-3.76;100.00;95405.88;5012392;28;20218;-46
2022/03/05 03:05:12;;;;;;;25.83;12.70;;;;;;;-3.78;100.00;95399.28;5012402;28;20210;-46
2022/03/05 03:07:37;;;;;;;24.00;12.53;;;;;;;-3.79;100.00;95401.16;5012063;28;20188;-47
2022/03/05 03:10:05;;;;;;;23.67;13.03;;;;;;;-3.80;100.00;95407.59;5012683;28;20195;-66
2022/03/05 03:12:30;;;;;;;31.93;13.33;;;;;;;-3.80;100.00;95402.25;5012427;28;20192;-62
2022/03/05 03:14:56;;;;;;;36.93;18.93;;;;;;;-3.84;100.00;95404.00;5012527;28;20250;-61
2022/03/05 03:17:21;;;;;;;24.53;13.30;;;;;;;-3.85;100.00;95399.75;5012374;28;20234;-62
2022/03/05 03:19:46;;;;;;;22.13;12.37;;;;;;;-3.85;100.00;95405.09;5013104;28;20190;-62
2022/03/05 03:22:12;;;;;;;26.03;12.60;;;;;;;-3.86;100.00;95394.75;5012242;28;20184;-62
2022/03/05 03:24:37;;;;;;;23.40;12.13;;;;;;;-3.89;100.00;95400.69;5012363;28;20183;-61
2022/03/05 03:27:03;;;;;;;22.90;11.73;;;;;;;-3.90;100.00;95393.75;5012131;28;20238;-52
2022/03/05 03:29:28;;;;;;;22.30;12.17;;;;;;;-3.89;100.00;95398.03;5012380;28;20180;-61
2022/03/05 03:31:53;;;;;;;24.63;12.43;;;;;;;-3.91;100.00;95387.66;5012223;28;20270;-66
2022/03/05 03:34:19;;;;;;;25.77;12.57;;;;;;;-3.94;100.00;95393.63;5012447;28;20211;-66
2022/03/05 03:36:44;;;;;;;28.33;13.67;;;;;;;-3.96;100.00;95385.13;5012557;28;20193;-66
2022/03/05 03:39:10;;;;;;;27.83;13.27;;;;;;;-3.97;100.00;95382.81;5014277;28;20179;-65
2022/03/05 03:41:35;;;;;;;27.83;13.70;;;;;;;-3.99;100.00;95385.78;5015860;28;20187;-66
2022/03/05 03:44:00;;;;;;;24.50;12.80;;;;;;;-4.00;100.00;95394.84;5015503;28;20194;-65
2022/03/05 03:46:26;;;;;;;25.13;12.57;;;;;;;-4.02;100.00;95386.41;5015230;28;20207;-51
2022/03/05 03:48:51;;;;;;;27.67;12.67;;;;;;;-4.05;100.00;95386.22;5016003;28;20182;-61
2022/03/05 03:51:16;;;;;;;26.37;12.67;;;;;;;-4.05;100.00;95387.00;5015355;28;20534;-61
2022/03/05 03:53:42;;;;;;;25.50;12.87;;;;;;;-4.09;100.00;95386.06;5015395;28;20179;-62
2022/03/05 03:56:07;;;;;;;25.63;12.33;;;;;;;-4.07;100.00;95397.19;5015427;28;20195;-61
2022/03/05 03:58:32;;;;;;;24.10;13.07;;;;;;;-4.09;100.00;95407.38;5015034;28;20180;-61
2022/03/05 04:00:57;;;;;;;26.17;13.40;;;;;;;-4.08;100.00;95400.97;5015155;28;20202;-61
2022/03/05 04:03:23;;;;;;;22.83;11.97;;;;;;;-4.06;100.00;95401.44;5014783;28;20210;-53
2022/03/05 04:05:48;;;;;;;24.13;13.17;;;;;;;-4.04;100.00;95406.47;5015260;28;20219;-54
2022/03/05 04:10:57;;;;;;;23.23;13.07;;;;;;;-4.05;100.00;95413.66;5016530;28;20210;-62
2022/03/05 04:13:22;;;;;;;21.67;11.83;;;;;;;-4.04;100.00;95409.91;5014957;28;20652;-63
2022/03/05 04:15:48;;;;;;;23.63;13.10;;;;;;;-4.06;100.00;95397.97;5015118;28;20203;-63
2022/03/05 04:18:13;;;;;;;25.20;13.37;;;;;;;-4.10;100.00;95405.03;5014844;28;20276;-64
2022/03/05 04:20:38;;;;;;;24.60;12.77;;;;;;;-4.12;100.00;95405.34;5014853;28;20195;-62
2022/03/05 04:23:04;;;;;;;23.73;12.50;;;;;;;-4.14;100.00;95404.88;5014896;28;20191;-53
2022/03/05 04:25:29;;;;;;;22.23;12.23;;;;;;;-4.15;100.00;95418.50;5014770;28;20207;-51
2022/03/05 04:27:55;;;;;;;29.00;13.27;;;;;;;-4.21;100.00;95420.53;5014929;28;20187;-51
2022/03/05 04:30:20;;;;;;;21.77;11.83;;;;;;;-4.25;100.00;95406.25;5014949;28;20241;-54
2022/03/05 04:32:45;;;;;;;25.20;12.67;;;;;;;-4.26;100.00;95410.00;5014678;28;20226;-53
2022/03/05 04:35:11;;;;;;;23.07;12.70;;;;;;;-4.30;100.00;95417.03;5014564;28;20203;-53
2022/03/05 04:37:37;;;;;;;28.70;13.77;;;;;;;-4.32;100.00;95421.91;5014319;28;20175;-54
2022/03/05 04:40:04;;;;;;;23.83;12.47;;;;;;;-4.30;100.00;95416.28;5015048;28;20187;-56
2022/03/05 04:42:29;;;;;;;26.37;14.17;;;;;;;-4.31;100.00;95420.81;5014512;28;20183;-51
2022/03/05 04:44:55;;;;;;;25.83;13.27;;;;;;;-4.31;100.00;95420.00;5014559;28;20191;-55
2022/03/05 04:47:20;;;;;;;24.07;13.10;;;;;;;-4.32;100.00;95423.78;5014411;28;20192;-53
2022/03/05 04:49:46;;;;;;;26.50;12.83;;;;;;;-4.31;100.00;95418.16;5013833;28;20195;-52
2022/03/05 04:52:14;;;;;;;27.30;12.17;;;;;;;-4.30;100.00;95427.69;5014481;28;20206;-52
2022/03/05 04:54:40;;;;;;;28.80;13.00;;;;;;;-4.30;100.00;95426.94;5014428;28;20183;-53
2022/03/05 04:57:05;;;;;;;22.53;12.70;;;;;;;-4.31;100.00;95415.47;5014362;28;20184;-51
2022/03/05 04:59:30;;;;;;;22.43;12.17;;;;;;;-4.30;100.00;95426.94;5015026;28;20187;-49
2022/03/05 05:01:56;;;;;;;24.40;12.30;;;;;;;-4.31;100.00;95420.81;5014169;28;20203;-66
2022/03/05 05:04:22;;;;;;;24.83;12.57;;;;;;;-4.34;100.00;95420.63;5014211;28;20187;-66
2022/03/05 05:06:48;;;;;;;26.03;12.83;;;;;;;-4.34;100.00;95426.75;5013826;28;20207;-66
2022/03/05 05:09:13;;;;;;;23.47;12.57;;;;;;;-4.33;100.00;95428.31;5014200;28;20252;-65
2022/03/05 05:11:39;;;;;;;26.20;13.37;;;;;;;-4.34;100.00;95432.09;5014080;28;20198;-68
2022/03/05 05:14:04;;;;;;;25.93;13.20;;;;;;;-4.38;100.00;95425.81;5014252;28;20195;-66
2022/03/05 05:16:30;;;;;;;24.87;12.57;;;;;;;-4.39;100.00;95429.56;5014610;28;20191;-68
2022/03/05 05:21:39;;;;;;;26.83;13.00;;;;;;;-4.43;100.00;95423.28;5015198;28;20206;-48
2022/03/05 05:24:05;;;;;;;27.67;13.07;;;;;;;-4.44;100.00;95426.25;5014303;28;20239;-51
2022/03/05 05:26:30;;;;;;;25.00;12.80;;;;;;;-4.43;100.00;95433.94;5013906;28;20195;-51
2022/03/05 05:28:56;;;;;;;21.33;11.93;;;;;;;-4.44;100.00;95424.34;5013882;28;20199;-49
2022/03/05 05:31:21;;;;;;;26.20;12.60;;;;;;;-4.44;100.00;95426.25;5013796;28;20202;-50
2022/03/05 05:33:49;;;;;;;24.53;13.07;;;;;;;-4.46;100.00;95426.56;5013770;28;20274;-52
2022/03/05 05:36:14;;;;;;;27.33;12.77;;;;;;;-4.49;100.00;95424.50;5014283;28;20202;-68
2022/03/05 05:38:40;;;;;;;34.97;16.57;;;;;;;-4.50;100.00;95428.28;5014181;28;20193;-46
2022/03/05 05:41:06;;;;;;;29.47;14.10;;;;;;;-4.50;100.00;95430.94;5014875;28;20183;-53
2022/03/05 05:43:31;;;;;;;27.90;12.80;;;;;;;-4.53;100.00;95436.88;5013961;28;20187;-48
2022/03/05 05:45:57;;;;;;;23.50;12.40;;;;;;;-4.56;100.00;95437.47;5013919;28;20207;-50
2022/03/05 05:48:22;;;;;;;27.43;14.20;;;;;;;-4.56;100.00;95429.50;5013815;28;20184;-50
2022/03/05 05:50:47;;;;;;;25.90;12.47;;;;;;;-4.56;100.00;95432.16;5013550;28;20206;-49
2022/03/05 05:53:13;;;;;;;26.43;13.77;;;;;;;-4.54;100.00;95432.66;5013636;28;20297;-53
2022/03/05 05:55:38;;;;;;;25.33;13.53;;;;;;;-4.49;100.00;95435.16;5013336;28;20211;-59
2022/03/05 05:58:03;;;;;;;26.57;14.27;;;;;;;-4.37;100.00;95443.34;5013069;28;20186;-60
2022/03/05 06:00:29;;;;;;;26.93;13.90;;;;;;;-4.15;100.00;95440.59;5013469;28;20191;-57
2022/03/05 06:02:54;;;;;;;26.80;14.30;;;;;;;-3.95;100.00;95444.56;5012298;28;20207;-58
2022/03/05 06:05:19;;;;;;;24.90;14.17;;;;;;;-3.93;100.00;95445.84;5013293;28;20214;-58
2022/03/05 06:07:45;;;;;;;32.33;16.20;;;;;;;-3.81;100.00;95438.03;5012954;28;20238;-58
2022/03/05 06:10:10;;;;;;;26.30;14.90;;;;;;;-3.47;100.00;95440.72;5013230;28;20175;-56
2022/03/05 06:12:37;;;;;;;29.23;16.33;;;;;;;-3.00;100.00;95448.84;5013863;28;20187;-70
2022/03/05 06:15:03;;;;;;;29.93;14.37;;;;;;;-2.57;100.00;95449.56;5013012;28;20711;-60
2022/03/05 06:17:30;;;;;;;25.90;14.40;;;;;;;-1.82;100.00;95436.97;5013368;28;20187;-67
2022/03/05 06:19:55;;;;;;;25.37;14.40;;;;;;;-1.07;100.00;95446.66;5013348;28;20246;-70
2022/03/05 06:22:20;;;;;;;27.97;14.03;;;;;;;-0.38;100.00;95443.00;5013071;28;20214;-70
2022/03/05 06:24:46;;;;;;;23.80;13.57;;;;;;;0.32;100.00;95459.84;5013733;28;20231;-69
2022/03/05 06:27:11;;;;;;;25.87;14.23;;;;;;;0.85;100.00;95463.00;5013959;28;20186;-69
2022/03/05 06:29:36;;;;;;;23.63;13.93;;;;;;;1.12;100.00;95462.25;5013006;28;20175;-67
2022/03/05 06:32:02;;;;;;;25.77;14.33;;;;;;;1.53;100.00;95461.06;5013051;28;20198;-67
2022/03/05 06:34:28;;;;;;;24.50;15.27;;;;;;;1.93;100.00;95461.75;5012850;28;20183;-51
2022/03/05 06:36:54;;;;;;;26.60;14.63;;;;;;;2.45;100.00;95463.03;5013530;28;20221;-52
2022/03/05 06:39:20;;;;;;;25.63;14.97;;;;;;;2.78;100.00;95468.81;5013152;28;20187;-55
2022/03/05 06:41:45;;;;;;;23.67;14.43;;;;;;;2.29;100.00;95467.66;5012693;28;20230;-56
2022/03/05 06:44:10;;;;;;;22.90;14.67;;;;;;;2.84;100.00;95472.78;5013526;28;20184;-51
2022/03/05 06:46:36;;;;;;;24.37;14.97;;;;;;;3.48;100.00;95475.69;5012694;28;20215;-53
2022/03/05 06:49:01;;;;;;;26.00;16.10;;;;;;;3.22;100.00;95478.25;5013238;28;20196;-53
2022/03/05 06:51:27;;;;;;;22.70;15.50;;;;;;;3.62;100.00;95474.38;5012955;28;20284;-59
2022/03/05 06:53:52;;;;;;;26.57;15.67;;;;;;;3.60;100.00;95471.28;5012716;28;20187;-51
2022/03/05 06:56:17;;;;;;;28.10;17.13;;;;;;;4.36;100.00;95481.91;5012454;28;20205;-51
2022/03/05 06:58:42;;;;;;;25.87;16.67;;;;;;;4.16;100.00;95485.81;5012364;28;20198;-48
2022/03/05 07:01:08;;;;;;;26.67;17.30;;;;;;;3.85;100.00;95483.34;5012595;28;20241;-52
2022/03/05 07:03:33;;;;;;;28.77;17.80;;;;;;;4.49;100.00;95477.88;5012317;28;20235;-51
2022/03/05 07:05:58;;;;;;;27.03;17.57;;;;;;;4.38;94.65;95479.63;5012372;28;20300;-50
2022/03/05 07:08:24;;;;;;;27.67;16.03;;;;;;;4.03;98.30;95485.19;5012508;28;20238;-58
2022/03/05 07:10:49;;;;;;;28.27;16.73;;;;;;;4.81;96.37;95488.03;5012466;28;20194;-56
2022/03/05 07:13:15;;;;;;;24.23;16.17;;;;;;;4.69;95.35;95479.34;5013250;28;20230;-56
2022/03/05 07:15:40;;;;;;;25.93;16.10;;;;;;;4.76;93.17;95484.88;5015868;28;20200;-57
2022/03/05 07:18:05;;;;;;;22.73;15.47;;;;;;;4.17;94.77;95490.06;5015757;28;20189;-56
2022/03/05 07:20:31;;;;;;;25.40;16.80;;;;;;;4.56;98.44;95492.31;5016193;28;20194;-57
2022/03/05 07:22:56;;;;;;;24.23;16.40;;;;;;;4.79;96.57;95492.25;5015619;28;20218;-55
2022/03/05 07:25:22;;;;;;;24.17;16.00;;;;;;;4.76;96.26;95490.28;5015706;28;20211;-67
2022/03/05 07:27:48;;;;;;;23.17;15.50;;;;;;;4.48;95.09;95495.25;5015919;28;20192;-46
2022/03/05 07:30:13;;;;;;;22.73;16.10;;;;;;;5.36;91.15;95484.56;5016216;28;20191;-56
2022/03/05 07:32:39;;;;;;;23.70;16.53;;;;;;;6.21;88.06;95486.34;5015451;28;20245;-55
2022/03/05 07:35:05;;;;;;;23.07;16.43;;;;;;;5.16;85.49;95488.56;5015495;28;20228;-55
2022/03/05 07:37:31;;;;;;;24.87;16.70;;;;;;;5.30;87.70;95493.38;5015243;28;20196;-55
2022/03/05 07:39:56;;;;;;;24.17;16.53;;;;;;;6.45;83.68;95488.53;5015531;28;20197;-56
2022/03/05 07:42:21;;;;;;;22.97;16.47;;;;;;;6.81;79.27;95479.50;5015226;28;20198;-55
2022/03/05 07:44:47;;;;;;;23.20;16.63;;;;;;;6.82;76.67;95481.06;5015540;28;20236;-53
2022/03/05 07:47:12;;;;;;;23.13;16.93;;;;;;;6.01;83.84;95474.16;5015615;28;20218;-58
2022/03/05 07:49:37;;;;;;;22.70;17.20;;;;;;;7.58;77.77;95471.78;5015327;28;20186;-58
2022/03/05 07:52:03;;;;;;;22.50;16.30;;;;;;;6.54;76.92;95476.19;5015590;28;20222;-57
2022/03/05 07:54:28;;;;;;;25.70;17.23;;;;;;;7.57;75.89;95478.41;5015421;28;20214;-59
2022/03/05 07:56:55;;;;;;;23.17;16.47;;;;;;;7.83;71.92;95486.28;5015251;28;20237;-58
2022/03/05 07:59:20;;;;;;;24.57;17.07;;;;;;;7.99;71.00;95473.13;5015117;28;20213;-58
2022/03/05 08:01:45;;;;;;;27.70;17.77;;;;;;;6.73;73.26;95480.59;5015130;28;20191;-58
2022/03/05 08:04:11;;;;;;;25.97;17.13;;;;;;;6.92;74.10;95491.19;5015485;28;20258;-58
2022/03/05 08:06:37;;;;;;;23.87;17.60;;;;;;;7.01;77.96;95477.31;5014905;28;20225;-56
2022/03/05 08:09:03;;;;;;;27.13;17.80;;;;;;;6.93;78.05;95475.72;5015044;28;20282;-56
2022/03/05 08:11:29;;;;;;;25.90;17.53;;;;;;;6.70;77.35;95475.91;5015389;28;20229;-55
2022/03/05 08:13:54;;;;;;;25.17;17.90;;;;;;;7.43;75.16;95489.19;5015142;28;20195;-54
2022/03/05 08:16:19;;;;;;;25.40;17.17;;;;;;;7.72;76.16;95484.69;5015258;28;20197;-57
2022/03/05 08:18:45;;;;;;;26.57;17.83;;;;;;;7.82;72.50;95483.94;5014876;28;20183;-54
2022/03/05 08:21:10;;;;;;;27.70;18.03;;;;;;;8.30;70.04;95483.31;5014953;28;20199;-54
2022/03/05 08:23:36;;;;;;;25.87;18.10;;;;;;;8.34;68.56;95477.91;5015248;28;20187;-51
2022/03/05 08:26:02;;;;;;;26.37;17.97;;;;;;;8.15;74.17;95486.38;5014449;28;20207;-51
2022/03/05 08:28:27;;;;;;;25.30;17.70;;;;;;;7.94;73.31;95486.31;5015331;28;20207;-53
2022/03/05 08:30:52;;;;;;;25.23;17.33;;;;;;;8.26;71.40;95474.38;5014681;28;20212;-54
2022/03/05 08:33:18;;;;;;;24.47;18.13;;;;;;;8.24;70.61;95482.16;5014630;28;20265;-53
2022/03/05 08:35:43;;;;;;;23.27;17.40;;;;;;;8.10;70.84;95489.47;5014548;28;20189;-50
2022/03/05 08:38:09;;;;;;;25.80;18.53;;;;;;;8.56;70.58;95491.13;5015642;28;20218;-55
2022/03/05 08:40:35;;;;;;;27.33;18.07;;;;;;;9.21;65.88;95477.88;5014234;28;20190;-46
2022/03/05 08:43:00;;;;;;;23.37;16.87;;;;;;;9.35;62.97;95477.06;5014579;28;20277;-73
2022/03/05 08:45:26;;;;;;;26.63;17.97;;;;;;;8.69;65.18;95473.25;5014654;28;20210;-68
2022/03/05 08:47:52;;;;;;;25.83;17.87;;;;;;;8.61;66.90;95482.59;5015067;28;20237;-68
2022/03/05 08:50:17;;;;;;;25.47;18.10;;;;;;;9.10;65.78;95466.22;5014765;28;20198;-69
2022/03/05 08:52:42;;;;;;;25.53;16.80;;;;;;;8.16;66.75;95466.94;5015098;28;20175;-67
2022/03/05 08:55:11;;;;;;;24.63;17.47;;;;;;;8.18;68.64;95474.72;5014489;28;20193;-66
2022/03/05 08:57:37;;;;;;;22.80;16.40;;;;;;;7.58;69.20;95471.78;5014259;28;20241;-66
2022/03/05 09:00:05;;;;;;;24.97;16.80;;;;;;;7.15;70.09;95482.81;5014062;28;20183;-59
2022/03/05 09:02:31;;;;;;;23.83;16.50;;;;;;;6.03;75.27;95494.31;5014147;28;20226;-59
2022/03/05 09:04:56;;;;;;;23.60;16.63;;;;;;;5.29;82.18;95481.78;5014293;28;20249;-52
2022/03/05 09:07:22;;;;;;;25.13;16.83;;;;;;;5.26;86.55;95482.50;5014491;28;20182;-51
2022/03/05 09:09:47;;;;;;;25.07;16.47;;;;;;;5.19;85.91;95481.63;5014275;28;20189;-50
2022/03/05 09:12:12;;;;;;;25.37;16.57;;;;;;;4.77;86.42;95505.38;5013899;28;20175;-54
2022/03/05 09:14:38;;;;;;;24.23;14.83;;;;;;;4.28;90.25;95488.34;5014025;28;20195;-52
2022/03/05 09:17:04;;;;;;;24.17;15.37;;;;;;;3.81;94.30;95482.47;5013863;28;20175;-55
2022/03/05 09:19:30;;;;;;;23.80;14.70;;;;;;;4.28;95.15;95480.22;5014329;28;20231;-56
2022/03/05 09:21:55;;;;;;;23.23;14.10;;;;;;;3.58;95.18;95491.28;5014408;28;20278;-55
2022/03/05 09:24:20;;;;;;;25.33;15.33;;;;;;;3.34;98.99;95513.19;5014094;28;20203;-55
2022/03/05 09:26:46;;;;;;;21.23;14.37;;;;;;;3.04;100.00;95482.47;5014078;28;20250;-53
2022/03/05 09:29:11;;;;;;;22.53;14.20;;;;;;;3.46;100.00;95474.47;5013738;28;20187;-58
2022/03/05 09:31:39;;;;;;;21.23;13.70;;;;;;;3.63;97.90;95481.34;5013483;28;20185;-59
2022/03/05 09:34:04;;;;;;;19.43;12.90;;;;;;;3.16;93.31;95478.84;5013711;28;20245;-67
2022/03/05 09:36:31;;;;;;;22.50;13.10;;;;;;;3.04;95.27;95474.38;5013586;28;20179;-53
2022/03/05 09:38:56;;;;;;;20.17;12.47;;;;;;;2.98;95.38;95473.09;5013810;28;20274;-55
2022/03/05 09:41:22;;;;;;;22.03;12.67;;;;;;;2.67;96.60;95472.38;5013937;28;20187;-51
2022/03/05 09:43:47;;;;;;;22.10;12.30;;;;;;;2.59;95.45;95476.81;5013765;28;20536;-53
2022/03/05 09:46:13;;;;;;;21.83;12.33;;;;;;;2.72;95.22;95491.78;5013283;28;20218;-52
2022/03/05 09:48:39;;;;;;;18.80;12.27;;;;;;;3.35;90.82;95476.97;5013682;28;20540;-53
2022/03/05 09:51:05;;;;;;;17.87;10.73;;;;;;;3.33;88.49;95468.44;5013633;28;20199;-53
2022/03/05 09:53:31;;;;;;;17.30;10.93;;;;;;;4.81;80.91;95465.63;5013412;28;20205;-52
2022/03/05 09:55:58;;;;;;;16.30;10.57;;;;;;;4.83;73.24;95479.56;5013521;28;20229;-52
2022/03/05 09:58:23;;;;;;;15.50;9.93;;;;;;;4.08;73.81;95473.31;5013333;28;20194;-52
2022/03/05 10:00:50;;;;;;;16.37;10.43;;;;;;;4.33;73.69;95475.28;5013162;28;20193;-55
2022/03/05 10:03:16;;;;;;;14.87;9.77;;;;;;;4.93;69.82;95478.94;5013443;28;20209;-51
2022/03/05 10:05:41;;;;;;;16.57;10.33;;;;;;;4.68;68.69;95475.88;5013201;28;20212;-52
2022/03/05 10:08:13;;;;;;;15.73;10.23;;;;;;;4.01;69.30;95473.19;5013409;28;20201;-54
2022/03/05 10:10:49;;;;;;;15.00;9.67;;;;;;;3.70;69.91;95478.78;5013718;28;20192;-67
2022/03/05 10:13:25;;;;;;;15.87;10.00;;;;;;;3.05;73.24;95478.66;5013058;28;20290;-59
2022/03/05 10:15:54;;;;;;;15.93;9.40;;;;;;;3.08;74.63;95471.75;5013015;28;20241;-59
2022/03/05 10:18:30;;;;;;;14.50;8.77;;;;;;;3.35;72.27;95486.97;5012947;28;20191;-55
2022/03/05 10:20:55;;;;;;;13.43;8.07;;;;;;;4.38;65.15;95466.91;5013100;28;20244;-56
2022/03/05 10:23:21;;;;;;;12.90;8.03;;;;;;;4.23;63.81;95472.44;5013320;28;20583;-59
2022/03/05 10:25:52;;;;;;;11.97;7.90;;;;;;;4.27;63.47;95470.56;5013863;28;20210;-59
2022/03/05 10:28:18;;;;;;;12.60;7.50;;;;;;;4.46;60.62;95478.59;5013526;28;20187;-59
2022/03/05 10:30:53;;;;;;;16.03;8.47;;;;;;;4.38;63.87;95461.50;5012987;28;20191;-51
2022/03/05 10:33:25;;;;;;;12.60;7.20;;;;;;;4.19;60.62;95466.19;5012811;28;20180;-57
2022/03/05 10:35:50;;;;;;;14.07;7.20;;;;;;;4.98;57.86;95475.91;5013223;28;20192;-57
2022/03/05 10:38:16;;;;;;;16.23;9.33;;;;;;;5.61;62.74;95463.97;5012697;28;20189;-57
2022/03/05 10:40:41;;;;;;;13.43;8.90;;;;;;;6.52;57.53;95456.03;5012597;28;20191;-57
2022/03/05 10:43:07;;;;;;;11.13;7.47;;;;;;;7.02;51.05;95468.78;5012754;28;20205;-58
2022/03/05 10:45:50;;;;;;;10.40;7.07;;;;;;;7.05;48.99;95450.94;5012911;28;20214;-58
2022/03/05 10:48:30;;;;;;;11.00;7.40;;;;;;;5.22;55.79;95468.16;4997403;28;20174;-63
2022/03/05 10:51:04;;;;;;;14.07;8.83;;;;;;;4.82;60.95;95461.78;5016602;28;20190;-60
2022/03/05 10:53:37;;;;;;;11.73;8.30;;;;;;;4.59;60.49;95463.75;5015840;28;20231;-61
2022/03/05 10:56:26;;;;;;;13.93;8.03;;;;;;;4.57;61.22;95455.22;5016002;28;20190;-61
2022/03/05 10:59:09;;;;;;;12.30;8.20;;;;;;;4.35;60.24;95480.34;5016040;28;20197;-61
2022/03/05 11:01:43;;;;;;;13.30;8.07;;;;;;;4.09;63.11;95458.66;5016375;28;20193;-60
2022/03/05 11:04:11;;;;;;;13.10;8.50;;;;;;;4.18;63.76;95460.00;5016026;28;20192;-60
2022/03/05 11:06:38;;;;;;;16.13;8.90;;;;;;;3.97;62.40;95470.41;5015990;28;20208;-63
2022/03/05 11:09:06;;;;;;;13.60;7.47;;;;;;;3.69;63.49;95466.44;5015866;28;20199;-56
2022/03/05 11:11:35;;;;;;;13.40;8.50;;;;;;;3.92;64.07;95461.84;5015907;28;20191;-58
2022/03/05 11:14:01;;;;;;;12.70;8.00;;;;;;;4.07;64.69;95453.63;5016373;28;20209;-61
2022/03/05 11:16:26;;;;;;;12.33;7.80;;;;;;;4.28;63.03;95469.41;5015780;28;20195;-57